sensor_id;sensor_type;location;lat;lon;timestamp;P1;durP1;ratioP1;P2;durP2;ratioP2
261;SDS011;114;48.260;10.988;2024-03-06T00:01:54;29.40;;;22.10;;
261;SDS011;114;48.260;10.988;2024-03-06T00:04:21;28.37;;;21.90;;
261;SDS011;114;48.260;10.988;2024-03-06T00:06:47;25.20;;;21.50;;
261;SDS011;114;48.260;10.988;2024-03-06T00:09:13;28.63;;;23.27;;
261;SDS011;114;48.260;10.988;2024-03-06T00:11:39;25.40;;;21.53;;
261;SDS011;114;48.260;10.988;2024-03-06T00:14:05;31.80;;;21.77;;
261;SDS011;114;48.260;10.988;2024-03-06T00:16:33;28.70;;;22.30;;
261;SDS011;114;48.260;10.988;2024-03-06T00:18:59;28.40;;;23.27;;
261;SDS011;114;48.260;10.988;2024-03-06T00:21:25;27.90;;;21.90;;
261;SDS011;114;48.260;10.988;2024-03-06T00:23:50;33.27;;;22.67;;
261;SDS011;114;48.260;10.988;2024-03-06T00:26:16;29.10;;;24.30;;
261;SDS011;114;48.260;10.988;2024-03-06T00:28:42;26.93;;;22.60;;
261;SDS011;114;48.260;10.988;2024-03-06T00:31:07;24.70;;;21.77;;
261;SDS011;114;48.260;10.988;2024-03-06T00:33:33;32.03;;;23.27;;
261;SDS011;114;48.260;10.988;2024-03-06T00:35:59;24.33;;;21.73;;
261;SDS011;114;48.260;10.988;2024-03-06T00:38:26;26.20;;;22.03;;
261;SDS011;114;48.260;10.988;2024-03-06T00:40:52;31.33;;;23.13;;
261;SDS011;114;48.260;10.988;2024-03-06T00:43:18;24.00;;;20.70;;
261;SDS011;114;48.260;10.988;2024-03-06T00:45:43;29.10;;;22.50;;
261;SDS011;114;48.260;10.988;2024-03-06T00:48:09;30.40;;;24.33;;
261;SDS011;114;48.260;10.988;2024-03-06T00:50:35;32.50;;;23.37;;
261;SDS011;114;48.260;10.988;2024-03-06T00:53:00;29.10;;;22.67;;
261;SDS011;114;48.260;10.988;2024-03-06T00:55:26;29.87;;;24.50;;
261;SDS011;114;48.260;10.988;2024-03-06T00:57:52;28.70;;;25.10;;
261;SDS011;114;48.260;10.988;2024-03-06T01:00:17;27.30;;;23.13;;
261;SDS011;114;48.260;10.988;2024-03-06T01:02:44;32.50;;;23.97;;
261;SDS011;114;48.260;10.988;2024-03-06T01:05:10;30.80;;;25.30;;
261;SDS011;114;48.260;10.988;2024-03-06T01:07:39;32.13;;;24.07;;
261;SDS011;114;48.260;10.988;2024-03-06T01:10:05;32.53;;;25.70;;
261;SDS011;114;48.260;10.988;2024-03-06T01:12:32;31.97;;;25.07;;
261;SDS011;114;48.260;10.988;2024-03-06T01:14:58;31.57;;;25.27;;
261;SDS011;114;48.260;10.988;2024-03-06T01:17:24;33.80;;;26.40;;
261;SDS011;114;48.260;10.988;2024-03-06T01:19:50;32.73;;;25.47;;
261;SDS011;114;48.260;10.988;2024-03-06T01:22:16;34.03;;;25.97;;
261;SDS011;114;48.260;10.988;2024-03-06T01:24:43;29.83;;;24.23;;
261;SDS011;114;48.260;10.988;2024-03-06T01:27:09;32.43;;;26.33;;
261;SDS011;114;48.260;10.988;2024-03-06T01:29:35;31.00;;;26.10;;
261;SDS011;114;48.260;10.988;2024-03-06T01:32:00;31.00;;;26.07;;
261;SDS011;114;48.260;10.988;2024-03-06T01:34:27;34.40;;;25.80;;
261;SDS011;114;48.260;10.988;2024-03-06T01:36:53;30.73;;;25.03;;
261;SDS011;114;48.260;10.988;2024-03-06T01:39:20;31.40;;;25.73;;
261;SDS011;114;48.260;10.988;2024-03-06T01:41:46;33.63;;;24.60;;
261;SDS011;114;48.260;10.988;2024-03-06T01:44:16;32.50;;;24.70;;
261;SDS011;114;48.260;10.988;2024-03-06T01:46:43;28.03;;;22.27;;
261;SDS011;114;48.260;10.988;2024-03-06T01:49:10;27.33;;;23.00;;
261;SDS011;114;48.260;10.988;2024-03-06T01:51:38;26.03;;;20.23;;
261;SDS011;114;48.260;10.988;2024-03-06T01:54:05;24.07;;;21.07;;
261;SDS011;114;48.260;10.988;2024-03-06T01:56:33;22.53;;;19.87;;
261;SDS011;114;48.260;10.988;2024-03-06T01:59:00;24.10;;;20.70;;
261;SDS011;114;48.260;10.988;2024-03-06T02:01:29;21.97;;;18.90;;
261;SDS011;114;48.260;10.988;2024-03-06T02:03:56;21.13;;;18.67;;
261;SDS011;114;48.260;10.988;2024-03-06T02:06:21;27.37;;;21.63;;
261;SDS011;114;48.260;10.988;2024-03-06T02:08:47;25.70;;;22.00;;
261;SDS011;114;48.260;10.988;2024-03-06T02:11:13;24.07;;;21.40;;
261;SDS011;114;48.260;10.988;2024-03-06T02:13:42;28.87;;;23.30;;
261;SDS011;114;48.260;10.988;2024-03-06T02:16:09;25.00;;;21.60;;
261;SDS011;114;48.260;10.988;2024-03-06T02:18:35;25.40;;;21.03;;
261;SDS011;114;48.260;10.988;2024-03-06T02:21:02;24.60;;;18.43;;
261;SDS011;114;48.260;10.988;2024-03-06T02:23:29;24.90;;;20.30;;
261;SDS011;114;48.260;10.988;2024-03-06T02:25:55;21.83;;;19.13;;
261;SDS011;114;48.260;10.988;2024-03-06T02:28:23;24.80;;;20.00;;
261;SDS011;114;48.260;10.988;2024-03-06T02:30:50;24.23;;;19.33;;
261;SDS011;114;48.260;10.988;2024-03-06T02:33:16;21.57;;;17.60;;
261;SDS011;114;48.260;10.988;2024-03-06T02:35:43;19.90;;;16.93;;
261;SDS011;114;48.260;10.988;2024-03-06T02:38:10;22.40;;;17.47;;
261;SDS011;114;48.260;10.988;2024-03-06T02:40:35;18.30;;;16.30;;
261;SDS011;114;48.260;10.988;2024-03-06T02:43:01;18.27;;;16.20;;
261;SDS011;114;48.260;10.988;2024-03-06T02:45:27;19.83;;;15.27;;
261;SDS011;114;48.260;10.988;2024-03-06T02:47:53;16.40;;;14.70;;
261;SDS011;114;48.260;10.988;2024-03-06T02:50:19;16.80;;;14.63;;
261;SDS011;114;48.260;10.988;2024-03-06T02:52:46;17.53;;;15.63;;
261;SDS011;114;48.260;10.988;2024-03-06T02:55:12;17.57;;;15.33;;
261;SDS011;114;48.260;10.988;2024-03-06T02:57:37;17.27;;;15.50;;
261;SDS011;114;48.260;10.988;2024-03-06T03:00:03;17.47;;;15.57;;
261;SDS011;114;48.260;10.988;2024-03-06T03:02:29;21.23;;;17.43;;
261;SDS011;114;48.260;10.988;2024-03-06T03:04:56;19.20;;;17.20;;
261;SDS011;114;48.260;10.988;2024-03-06T03:07:22;19.90;;;16.80;;
261;SDS011;114;48.260;10.988;2024-03-06T03:09:48;20.30;;;18.17;;
261;SDS011;114;48.260;10.988;2024-03-06T03:12:14;21.30;;;16.17;;
261;SDS011;114;48.260;10.988;2024-03-06T03:14:40;18.70;;;16.67;;
261;SDS011;114;48.260;10.988;2024-03-06T03:17:06;23.60;;;19.80;;
261;SDS011;114;48.260;10.988;2024-03-06T03:19:32;21.63;;;19.30;;
261;SDS011;114;48.260;10.988;2024-03-06T03:21:58;22.90;;;19.27;;
261;SDS011;114;48.260;10.988;2024-03-06T03:24:24;24.23;;;19.97;;
261;SDS011;114;48.260;10.988;2024-03-06T03:26:52;21.13;;;18.70;;
261;SDS011;114;48.260;10.988;2024-03-06T03:29:18;24.10;;;19.80;;
261;SDS011;114;48.260;10.988;2024-03-06T03:31:44;20.47;;;17.50;;
261;SDS011;114;48.260;10.988;2024-03-06T03:34:10;20.17;;;17.80;;
261;SDS011;114;48.260;10.988;2024-03-06T03:36:39;23.27;;;19.23;;
261;SDS011;114;48.260;10.988;2024-03-06T03:39:09;22.60;;;19.70;;
261;SDS011;114;48.260;10.988;2024-03-06T03:41:50;23.60;;;19.70;;
261;SDS011;114;48.260;10.988;2024-03-06T03:44:17;21.17;;;18.50;;
261;SDS011;114;48.260;10.988;2024-03-06T03:46:46;22.63;;;19.33;;
261;SDS011;114;48.260;10.988;2024-03-06T03:49:12;22.80;;;19.70;;
261;SDS011;114;48.260;10.988;2024-03-06T03:51:38;23.40;;;20.10;;
261;SDS011;114;48.260;10.988;2024-03-06T03:54:04;24.00;;;20.73;;
261;SDS011;114;48.260;10.988;2024-03-06T03:56:32;24.93;;;21.40;;
261;SDS011;114;48.260;10.988;2024-03-06T03:58:58;25.70;;;21.10;;
261;SDS011;114;48.260;10.988;2024-03-06T04:01:24;27.53;;;20.67;;
261;SDS011;114;48.260;10.988;2024-03-06T04:03:51;25.37;;;22.70;;
261;SDS011;114;48.260;10.988;2024-03-06T04:06:18;23.93;;;20.40;;
261;SDS011;114;48.260;10.988;2024-03-06T04:08:44;26.47;;;22.17;;
261;SDS011;114;48.260;10.988;2024-03-06T04:11:12;27.13;;;21.43;;
261;SDS011;114;48.260;10.988;2024-03-06T04:13:38;27.30;;;22.20;;
261;SDS011;114;48.260;10.988;2024-03-06T04:16:04;27.13;;;20.83;;
261;SDS011;114;48.260;10.988;2024-03-06T04:18:30;24.93;;;22.13;;
261;SDS011;114;48.260;10.988;2024-03-06T04:21:05;28.33;;;21.43;;
261;SDS011;114;48.260;10.988;2024-03-06T04:23:32;28.10;;;22.20;;
261;SDS011;114;48.260;10.988;2024-03-06T04:25:58;28.27;;;23.07;;
261;SDS011;114;48.260;10.988;2024-03-06T04:28:25;33.13;;;23.40;;
261;SDS011;114;48.260;10.988;2024-03-06T04:30:50;30.70;;;23.60;;
261;SDS011;114;48.260;10.988;2024-03-06T04:33:16;28.73;;;23.10;;
261;SDS011;114;48.260;10.988;2024-03-06T04:35:43;27.93;;;22.57;;
261;SDS011;114;48.260;10.988;2024-03-06T04:38:08;33.13;;;24.30;;
261;SDS011;114;48.260;10.988;2024-03-06T04:40:34;32.23;;;24.90;;
261;SDS011;114;48.260;10.988;2024-03-06T04:43:00;30.90;;;25.50;;
261;SDS011;114;48.260;10.988;2024-03-06T04:45:26;27.57;;;22.43;;
261;SDS011;114;48.260;10.988;2024-03-06T04:47:52;31.73;;;24.37;;
261;SDS011;114;48.260;10.988;2024-03-06T04:50:17;30.23;;;23.53;;
261;SDS011;114;48.260;10.988;2024-03-06T04:52:43;28.90;;;24.73;;
261;SDS011;114;48.260;10.988;2024-03-06T04:55:13;30.23;;;23.37;;
261;SDS011;114;48.260;10.988;2024-03-06T04:57:42;30.43;;;24.83;;
261;SDS011;114;48.260;10.988;2024-03-06T05:00:09;31.53;;;24.73;;
261;SDS011;114;48.260;10.988;2024-03-06T05:02:36;34.33;;;25.00;;
261;SDS011;114;48.260;10.988;2024-03-06T05:05:02;34.57;;;26.50;;
261;SDS011;114;48.260;10.988;2024-03-06T05:07:34;35.20;;;26.37;;
261;SDS011;114;48.260;10.988;2024-03-06T05:10:00;34.03;;;24.93;;
261;SDS011;114;48.260;10.988;2024-03-06T05:12:26;38.17;;;26.30;;
261;SDS011;114;48.260;10.988;2024-03-06T05:14:53;34.60;;;25.57;;
261;SDS011;114;48.260;10.988;2024-03-06T05:17:20;35.93;;;25.50;;
261;SDS011;114;48.260;10.988;2024-03-06T05:19:47;36.60;;;26.70;;
261;SDS011;114;48.260;10.988;2024-03-06T05:22:14;32.40;;;24.53;;
261;SDS011;114;48.260;10.988;2024-03-06T05:24:40;33.40;;;25.00;;
261;SDS011;114;48.260;10.988;2024-03-06T05:27:09;32.73;;;24.40;;
261;SDS011;114;48.260;10.988;2024-03-06T05:29:38;33.80;;;24.70;;
261;SDS011;114;48.260;10.988;2024-03-06T05:32:04;28.40;;;22.37;;
261;SDS011;114;48.260;10.988;2024-03-06T05:34:32;31.00;;;24.47;;
261;SDS011;114;48.260;10.988;2024-03-06T05:36:59;34.03;;;25.40;;
261;SDS011;114;48.260;10.988;2024-03-06T05:39:24;34.27;;;24.40;;
261;SDS011;114;48.260;10.988;2024-03-06T05:41:50;32.63;;;24.60;;
261;SDS011;114;48.260;10.988;2024-03-06T05:44:16;35.47;;;24.90;;
261;SDS011;114;48.260;10.988;2024-03-06T05:46:41;31.00;;;23.10;;
261;SDS011;114;48.260;10.988;2024-03-06T05:49:07;32.20;;;23.37;;
261;SDS011;114;48.260;10.988;2024-03-06T05:51:33;30.10;;;23.30;;
261;SDS011;114;48.260;10.988;2024-03-06T05:53:58;31.30;;;22.73;;
261;SDS011;114;48.260;10.988;2024-03-06T05:56:27;30.43;;;24.13;;
261;SDS011;114;48.260;10.988;2024-03-06T05:58:53;30.30;;;23.57;;
261;SDS011;114;48.260;10.988;2024-03-06T06:01:21;29.97;;;24.00;;
261;SDS011;114;48.260;10.988;2024-03-06T06:03:49;33.20;;;23.53;;
261;SDS011;114;48.260;10.988;2024-03-06T06:06:15;28.47;;;22.90;;
261;SDS011;114;48.260;10.988;2024-03-06T06:08:42;31.10;;;22.90;;
261;SDS011;114;48.260;10.988;2024-03-06T06:11:09;29.50;;;21.37;;
261;SDS011;114;48.260;10.988;2024-03-06T06:13:36;32.83;;;23.67;;
261;SDS011;114;48.260;10.988;2024-03-06T06:16:01;33.97;;;22.80;;
261;SDS011;114;48.260;10.988;2024-03-06T06:18:30;34.30;;;25.10;;
261;SDS011;114;48.260;10.988;2024-03-06T06:20:59;37.83;;;26.90;;
261;SDS011;114;48.260;10.988;2024-03-06T06:23:25;38.03;;;24.33;;
261;SDS011;114;48.260;10.988;2024-03-06T06:25:51;34.20;;;24.60;;
261;SDS011;114;48.260;10.988;2024-03-06T06:28:17;40.23;;;24.93;;
261;SDS011;114;48.260;10.988;2024-03-06T06:30:42;40.10;;;24.40;;
261;SDS011;114;48.260;10.988;2024-03-06T06:33:08;42.43;;;26.40;;
261;SDS011;114;48.260;10.988;2024-03-06T06:35:35;44.87;;;26.53;;
261;SDS011;114;48.260;10.988;2024-03-06T06:38:01;47.90;;;28.03;;
261;SDS011;114;48.260;10.988;2024-03-06T06:40:27;45.37;;;26.50;;
261;SDS011;114;48.260;10.988;2024-03-06T06:42:53;48.30;;;27.17;;
261;SDS011;114;48.260;10.988;2024-03-06T06:45:19;55.03;;;26.93;;
261;SDS011;114;48.260;10.988;2024-03-06T06:47:46;43.30;;;24.90;;
261;SDS011;114;48.260;10.988;2024-03-06T06:50:12;41.47;;;23.30;;
261;SDS011;114;48.260;10.988;2024-03-06T06:52:38;42.40;;;25.67;;
261;SDS011;114;48.260;10.988;2024-03-06T06:55:04;39.10;;;24.30;;
261;SDS011;114;48.260;10.988;2024-03-06T06:57:31;44.60;;;25.27;;
261;SDS011;114;48.260;10.988;2024-03-06T06:59:58;44.50;;;25.27;;
261;SDS011;114;48.260;10.988;2024-03-06T07:02:36;41.27;;;22.00;;
261;SDS011;114;48.260;10.988;2024-03-06T07:05:04;45.60;;;24.63;;
261;SDS011;114;48.260;10.988;2024-03-06T07:07:30;41.27;;;23.23;;
261;SDS011;114;48.260;10.988;2024-03-06T07:09:56;44.33;;;24.93;;
261;SDS011;114;48.260;10.988;2024-03-06T07:12:24;49.47;;;24.43;;
261;SDS011;114;48.260;10.988;2024-03-06T07:14:50;43.57;;;22.57;;
261;SDS011;114;48.260;10.988;2024-03-06T07:17:17;47.87;;;24.60;;
261;SDS011;114;48.260;10.988;2024-03-06T07:19:44;47.57;;;24.20;;
261;SDS011;114;48.260;10.988;2024-03-06T07:22:33;45.87;;;24.17;;
261;SDS011;114;48.260;10.988;2024-03-06T07:24:59;42.77;;;21.73;;
261;SDS011;114;48.260;10.988;2024-03-06T07:27:27;36.47;;;21.03;;
261;SDS011;114;48.260;10.988;2024-03-06T07:29:53;45.50;;;23.43;;
261;SDS011;114;48.260;10.988;2024-03-06T07:32:19;41.40;;;24.17;;
261;SDS011;114;48.260;10.988;2024-03-06T07:34:45;45.03;;;23.80;;
261;SDS011;114;48.260;10.988;2024-03-06T07:37:11;45.27;;;23.67;;
261;SDS011;114;48.260;10.988;2024-03-06T07:39:37;43.47;;;23.47;;
261;SDS011;114;48.260;10.988;2024-03-06T07:42:05;50.83;;;24.20;;
261;SDS011;114;48.260;10.988;2024-03-06T07:44:32;43.30;;;23.70;;
261;SDS011;114;48.260;10.988;2024-03-06T07:47:02;49.57;;;25.97;;
261;SDS011;114;48.260;10.988;2024-03-06T07:49:30;47.50;;;24.43;;
261;SDS011;114;48.260;10.988;2024-03-06T07:51:57;44.37;;;26.13;;
261;SDS011;114;48.260;10.988;2024-03-06T07:54:23;55.03;;;24.90;;
261;SDS011;114;48.260;10.988;2024-03-06T07:56:48;44.97;;;25.73;;
261;SDS011;114;48.260;10.988;2024-03-06T07:59:15;50.47;;;25.90;;
261;SDS011;114;48.260;10.988;2024-03-06T08:01:43;54.20;;;26.30;;
261;SDS011;114;48.260;10.988;2024-03-06T08:04:10;52.97;;;25.63;;
261;SDS011;114;48.260;10.988;2024-03-06T08:06:35;50.63;;;25.60;;
261;SDS011;114;48.260;10.988;2024-03-06T08:09:02;46.33;;;25.50;;
261;SDS011;114;48.260;10.988;2024-03-06T08:11:34;47.33;;;25.13;;
261;SDS011;114;48.260;10.988;2024-03-06T08:14:01;45.20;;;24.60;;
261;SDS011;114;48.260;10.988;2024-03-06T08:16:27;45.93;;;24.97;;
261;SDS011;114;48.260;10.988;2024-03-06T08:18:55;42.60;;;22.03;;
261;SDS011;114;48.260;10.988;2024-03-06T08:21:21;40.27;;;23.30;;
261;SDS011;114;48.260;10.988;2024-03-06T08:23:48;38.93;;;21.30;;
261;SDS011;114;48.260;10.988;2024-03-06T08:26:15;40.00;;;22.57;;
261;SDS011;114;48.260;10.988;2024-03-06T08:28:41;43.67;;;22.40;;
261;SDS011;114;48.260;10.988;2024-03-06T08:31:10;38.33;;;21.20;;
261;SDS011;114;48.260;10.988;2024-03-06T08:33:36;36.13;;;20.97;;
261;SDS011;114;48.260;10.988;2024-03-06T08:36:09;31.90;;;19.33;;
261;SDS011;114;48.260;10.988;2024-03-06T08:38:35;30.10;;;18.83;;
261;SDS011;114;48.260;10.988;2024-03-06T08:41:01;29.93;;;18.40;;
261;SDS011;114;48.260;10.988;2024-03-06T08:43:27;26.83;;;18.13;;
261;SDS011;114;48.260;10.988;2024-03-06T08:45:52;25.50;;;16.57;;
261;SDS011;114;48.260;10.988;2024-03-06T08:48:18;25.33;;;16.47;;
261;SDS011;114;48.260;10.988;2024-03-06T08:50:45;24.47;;;16.23;;
261;SDS011;114;48.260;10.988;2024-03-06T08:53:10;21.77;;;14.27;;
261;SDS011;114;48.260;10.988;2024-03-06T08:55:45;21.77;;;14.13;;
261;SDS011;114;48.260;10.988;2024-03-06T08:58:12;20.83;;;14.83;;
261;SDS011;114;48.260;10.988;2024-03-06T09:00:39;23.77;;;15.77;;
261;SDS011;114;48.260;10.988;2024-03-06T09:03:05;18.30;;;13.57;;
261;SDS011;114;48.260;10.988;2024-03-06T09:05:32;22.80;;;14.93;;
261;SDS011;114;48.260;10.988;2024-03-06T09:07:58;21.27;;;15.23;;
261;SDS011;114;48.260;10.988;2024-03-06T09:10:25;19.23;;;12.83;;
261;SDS011;114;48.260;10.988;2024-03-06T09:12:51;24.17;;;14.40;;
261;SDS011;114;48.260;10.988;2024-03-06T09:15:16;21.77;;;14.70;;
261;SDS011;114;48.260;10.988;2024-03-06T09:17:44;18.63;;;14.10;;
261;SDS011;114;48.260;10.988;2024-03-06T09:20:12;21.60;;;14.03;;
261;SDS011;114;48.260;10.988;2024-03-06T09:22:38;19.53;;;13.53;;
261;SDS011;114;48.260;10.988;2024-03-06T09:25:05;18.90;;;13.60;;
261;SDS011;114;48.260;10.988;2024-03-06T09:27:31;19.27;;;14.00;;
261;SDS011;114;48.260;10.988;2024-03-06T09:29:57;19.90;;;14.23;;
261;SDS011;114;48.260;10.988;2024-03-06T09:32:22;17.60;;;13.00;;
261;SDS011;114;48.260;10.988;2024-03-06T09:34:49;21.60;;;14.63;;
261;SDS011;114;48.260;10.988;2024-03-06T09:37:16;19.80;;;14.43;;
261;SDS011;114;48.260;10.988;2024-03-06T09:39:41;27.53;;;16.30;;
261;SDS011;114;48.260;10.988;2024-03-06T09:42:07;22.53;;;15.30;;
261;SDS011;114;48.260;10.988;2024-03-06T09:44:33;26.33;;;15.57;;
261;SDS011;114;48.260;10.988;2024-03-06T09:46:59;20.83;;;14.83;;
261;SDS011;114;48.260;10.988;2024-03-06T09:49:32;20.63;;;14.57;;
261;SDS011;114;48.260;10.988;2024-03-06T09:51:59;19.53;;;14.73;;
261;SDS011;114;48.260;10.988;2024-03-06T09:54:28;21.83;;;15.60;;
261;SDS011;114;48.260;10.988;2024-03-06T09:56:54;19.90;;;14.70;;
261;SDS011;114;48.260;10.988;2024-03-06T09:59:22;18.90;;;13.93;;
261;SDS011;114;48.260;10.988;2024-03-06T10:04:22;22.50;;;15.10;;
261;SDS011;114;48.260;10.988;2024-03-06T10:06:56;25.20;;;16.67;;
261;SDS011;114;48.260;10.988;2024-03-06T10:09:24;22.83;;;16.53;;
261;SDS011;114;48.260;10.988;2024-03-06T10:11:51;22.70;;;15.17;;
261;SDS011;114;48.260;10.988;2024-03-06T10:14:20;22.10;;;16.63;;
261;SDS011;114;48.260;10.988;2024-03-06T10:16:52;24.50;;;16.93;;
261;SDS011;114;48.260;10.988;2024-03-06T10:19:18;25.63;;;16.67;;
261;SDS011;114;48.260;10.988;2024-03-06T10:21:48;26.50;;;17.50;;
261;SDS011;114;48.260;10.988;2024-03-06T10:24:25;27.00;;;18.07;;
261;SDS011;114;48.260;10.988;2024-03-06T10:26:54;31.80;;;17.80;;
261;SDS011;114;48.260;10.988;2024-03-06T10:29:24;25.70;;;17.83;;
261;SDS011;114;48.260;10.988;2024-03-06T10:31:54;25.33;;;18.10;;
261;SDS011;114;48.260;10.988;2024-03-06T10:34:21;25.97;;;18.27;;
261;SDS011;114;48.260;10.988;2024-03-06T10:36:57;29.63;;;18.87;;
261;SDS011;114;48.260;10.988;2024-03-06T10:39:24;30.80;;;19.33;;
261;SDS011;114;48.260;10.988;2024-03-06T10:41:51;23.10;;;17.87;;
261;SDS011;114;48.260;10.988;2024-03-06T10:44:21;31.17;;;19.43;;
261;SDS011;114;48.260;10.988;2024-03-06T10:46:50;29.23;;;20.10;;
261;SDS011;114;48.260;10.988;2024-03-06T10:49:22;31.97;;;20.27;;
261;SDS011;114;48.260;10.988;2024-03-06T10:51:49;32.47;;;20.93;;
261;SDS011;114;48.260;10.988;2024-03-06T10:54:18;34.17;;;20.70;;
261;SDS011;114;48.260;10.988;2024-03-06T10:56:47;28.30;;;19.27;;
261;SDS011;114;48.260;10.988;2024-03-06T10:59:13;30.03;;;20.13;;
261;SDS011;114;48.260;10.988;2024-03-06T11:01:41;23.47;;;17.53;;
261;SDS011;114;48.260;10.988;2024-03-06T11:04:09;36.93;;;20.27;;
261;SDS011;114;48.260;10.988;2024-03-06T11:06:36;29.83;;;19.93;;
261;SDS011;114;48.260;10.988;2024-03-06T11:09:03;29.07;;;19.27;;
261;SDS011;114;48.260;10.988;2024-03-06T11:11:31;28.40;;;19.20;;
261;SDS011;114;48.260;10.988;2024-03-06T11:14:00;25.87;;;18.47;;
261;SDS011;114;48.260;10.988;2024-03-06T11:16:31;34.80;;;19.80;;
261;SDS011;114;48.260;10.988;2024-03-06T11:19:17;28.00;;;19.00;;
261;SDS011;114;48.260;10.988;2024-03-06T11:21:46;30.47;;;19.30;;
261;SDS011;114;48.260;10.988;2024-03-06T11:26:57;28.30;;;19.67;;
261;SDS011;114;48.260;10.988;2024-03-06T11:29:28;31.30;;;21.97;;
261;SDS011;114;48.260;10.988;2024-03-06T11:32:14;32.20;;;20.07;;
261;SDS011;114;48.260;10.988;2024-03-06T11:34:39;30.23;;;20.23;;
261;SDS011;114;48.260;10.988;2024-03-06T11:37:06;28.10;;;19.73;;
261;SDS011;114;48.260;10.988;2024-03-06T11:39:35;33.90;;;20.03;;
261;SDS011;114;48.260;10.988;2024-03-06T11:42:02;30.53;;;19.97;;
261;SDS011;114;48.260;10.988;2024-03-06T11:44:31;26.47;;;17.70;;
261;SDS011;114;48.260;10.988;2024-03-06T11:47:01;28.93;;;19.70;;
261;SDS011;114;48.260;10.988;2024-03-06T11:49:35;28.70;;;20.37;;
261;SDS011;114;48.260;10.988;2024-03-06T11:52:04;32.20;;;20.43;;
261;SDS011;114;48.260;10.988;2024-03-06T11:54:34;31.77;;;21.30;;
261;SDS011;114;48.260;10.988;2024-03-06T11:57:01;29.80;;;21.03;;
261;SDS011;114;48.260;10.988;2024-03-06T11:59:32;34.50;;;21.33;;
261;SDS011;114;48.260;10.988;2024-03-06T12:02:01;28.23;;;19.10;;
261;SDS011;114;48.260;10.988;2024-03-06T12:04:29;29.53;;;19.93;;
261;SDS011;114;48.260;10.988;2024-03-06T12:06:57;28.80;;;20.37;;
261;SDS011;114;48.260;10.988;2024-03-06T12:09:41;31.80;;;20.00;;
261;SDS011;114;48.260;10.988;2024-03-06T12:12:08;32.27;;;21.63;;
261;SDS011;114;48.260;10.988;2024-03-06T12:14:35;30.30;;;20.50;;
261;SDS011;114;48.260;10.988;2024-03-06T12:17:01;30.73;;;19.73;;
261;SDS011;114;48.260;10.988;2024-03-06T12:19:32;25.13;;;17.93;;
261;SDS011;114;48.260;10.988;2024-03-06T12:21:59;29.30;;;19.13;;
261;SDS011;114;48.260;10.988;2024-03-06T12:24:26;29.50;;;19.70;;
261;SDS011;114;48.260;10.988;2024-03-06T12:27:02;26.03;;;17.67;;
261;SDS011;114;48.260;10.988;2024-03-06T12:29:29;22.50;;;14.37;;
261;SDS011;114;48.260;10.988;2024-03-06T12:32:00;20.30;;;14.10;;
261;SDS011;114;48.260;10.988;2024-03-06T12:34:26;18.40;;;14.60;;
261;SDS011;114;48.260;10.988;2024-03-06T12:36:53;25.10;;;15.40;;
261;SDS011;114;48.260;10.988;2024-03-06T12:39:19;26.83;;;16.73;;
261;SDS011;114;48.260;10.988;2024-03-06T12:41:50;22.50;;;15.40;;
261;SDS011;114;48.260;10.988;2024-03-06T12:44:17;20.67;;;15.57;;
261;SDS011;114;48.260;10.988;2024-03-06T12:46:44;23.20;;;15.40;;
261;SDS011;114;48.260;10.988;2024-03-06T12:49:10;14.37;;;11.70;;
261;SDS011;114;48.260;10.988;2024-03-06T12:51:35;12.00;;;9.53;;
261;SDS011;114;48.260;10.988;2024-03-06T12:54:01;10.00;;;7.60;;
261;SDS011;114;48.260;10.988;2024-03-06T12:56:28;9.07;;;7.93;;
261;SDS011;114;48.260;10.988;2024-03-06T12:58:54;7.60;;;6.90;;
261;SDS011;114;48.260;10.988;2024-03-06T13:01:20;12.03;;;7.40;;
261;SDS011;114;48.260;10.988;2024-03-06T13:03:46;9.20;;;7.50;;
261;SDS011;114;48.260;10.988;2024-03-06T13:06:12;10.17;;;7.77;;
261;SDS011;114;48.260;10.988;2024-03-06T13:08:37;8.03;;;7.23;;
261;SDS011;114;48.260;10.988;2024-03-06T13:11:03;10.53;;;7.50;;
261;SDS011;114;48.260;10.988;2024-03-06T13:13:29;11.20;;;8.20;;
261;SDS011;114;48.260;10.988;2024-03-06T13:15:57;10.27;;;8.23;;
261;SDS011;114;48.260;10.988;2024-03-06T13:18:24;11.67;;;7.77;;
261;SDS011;114;48.260;10.988;2024-03-06T13:20:57;7.73;;;6.83;;
261;SDS011;114;48.260;10.988;2024-03-06T13:23:25;9.37;;;7.87;;
261;SDS011;114;48.260;10.988;2024-03-06T13:25:51;11.87;;;7.90;;
261;SDS011;114;48.260;10.988;2024-03-06T13:28:17;9.13;;;7.33;;
261;SDS011;114;48.260;10.988;2024-03-06T13:30:43;9.40;;;7.70;;
261;SDS011;114;48.260;10.988;2024-03-06T13:33:09;9.00;;;7.73;;
261;SDS011;114;48.260;10.988;2024-03-06T13:35:36;12.00;;;8.83;;
261;SDS011;114;48.260;10.988;2024-03-06T13:38:01;8.50;;;7.57;;
261;SDS011;114;48.260;10.988;2024-03-06T13:40:28;9.37;;;6.90;;
261;SDS011;114;48.260;10.988;2024-03-06T13:42:54;9.20;;;7.33;;
261;SDS011;114;48.260;10.988;2024-03-06T13:45:20;7.70;;;6.93;;
261;SDS011;114;48.260;10.988;2024-03-06T13:47:47;9.03;;;6.97;;
261;SDS011;114;48.260;10.988;2024-03-06T13:50:14;8.20;;;6.70;;
261;SDS011;114;48.260;10.988;2024-03-06T13:52:41;7.00;;;6.30;;
261;SDS011;114;48.260;10.988;2024-03-06T13:55:07;6.00;;;5.40;;
261;SDS011;114;48.260;10.988;2024-03-06T13:57:34;8.33;;;7.13;;
261;SDS011;114;48.260;10.988;2024-03-06T14:00:04;6.03;;;5.53;;
261;SDS011;114;48.260;10.988;2024-03-06T14:02:32;7.53;;;6.83;;
261;SDS011;114;48.260;10.988;2024-03-06T14:04:59;9.70;;;5.57;;
261;SDS011;114;48.260;10.988;2024-03-06T14:07:30;5.80;;;5.23;;
261;SDS011;114;48.260;10.988;2024-03-06T14:09:55;5.20;;;4.70;;
261;SDS011;114;48.260;10.988;2024-03-06T14:12:25;7.07;;;6.37;;
261;SDS011;114;48.260;10.988;2024-03-06T14:14:51;5.43;;;5.03;;
261;SDS011;114;48.260;10.988;2024-03-06T14:17:18;6.23;;;5.50;;
261;SDS011;114;48.260;10.988;2024-03-06T14:19:43;8.83;;;7.53;;
261;SDS011;114;48.260;10.988;2024-03-06T14:22:11;9.37;;;7.57;;
261;SDS011;114;48.260;10.988;2024-03-06T14:24:37;5.80;;;5.30;;
261;SDS011;114;48.260;10.988;2024-03-06T14:27:03;8.93;;;8.00;;
261;SDS011;114;48.260;10.988;2024-03-06T14:29:32;9.80;;;8.50;;
261;SDS011;114;48.260;10.988;2024-03-06T14:31:57;9.30;;;7.40;;
261;SDS011;114;48.260;10.988;2024-03-06T14:34:23;8.13;;;7.33;;
261;SDS011;114;48.260;10.988;2024-03-06T14:36:51;7.73;;;7.03;;
261;SDS011;114;48.260;10.988;2024-03-06T14:39:17;8.80;;;6.93;;
261;SDS011;114;48.260;10.988;2024-03-06T14:41:43;8.20;;;6.87;;
261;SDS011;114;48.260;10.988;2024-03-06T14:44:10;7.03;;;6.17;;
261;SDS011;114;48.260;10.988;2024-03-06T14:46:35;10.90;;;8.13;;
261;SDS011;114;48.260;10.988;2024-03-06T14:49:08;6.37;;;5.80;;
261;SDS011;114;48.260;10.988;2024-03-06T14:51:35;6.77;;;5.97;;
261;SDS011;114;48.260;10.988;2024-03-06T14:54:02;7.43;;;6.27;;
261;SDS011;114;48.260;10.988;2024-03-06T14:56:28;4.80;;;4.50;;
261;SDS011;114;48.260;10.988;2024-03-06T14:58:56;4.50;;;4.20;;
261;SDS011;114;48.260;10.988;2024-03-06T15:01:24;9.17;;;7.20;;
261;SDS011;114;48.260;10.988;2024-03-06T15:03:50;6.67;;;5.77;;
261;SDS011;114;48.260;10.988;2024-03-06T15:06:16;8.23;;;7.37;;
261;SDS011;114;48.260;10.988;2024-03-06T15:08:42;7.20;;;6.50;;
261;SDS011;114;48.260;10.988;2024-03-06T15:11:10;8.53;;;7.63;;